createdAt,value
2018-04-24T02:38:35.405Z,15.60
2018-04-24T02:41:03.009Z,15.50
2018-04-24T02:43:30.748Z,15.70
2018-04-24T02:45:58.429Z,15.70
2018-04-24T02:48:26.835Z,15.60
2018-04-24T02:50:55.037Z,15.60
2018-04-24T02:53:23.589Z,15.60
2018-04-24T02:55:51.266Z,15.70
2018-04-24T02:58:19.617Z,15.80
2018-04-24T03:00:48.027Z,15.80
2018-04-24T03:03:16.287Z,15.80
2018-04-24T03:05:43.902Z,15.70
2018-04-24T03:08:11.466Z,15.80
2018-04-24T03:10:39.063Z,15.80
2018-04-24T03:13:07.119Z,15.80
2018-04-24T03:15:35.515Z,15.90
2018-04-24T03:18:03.148Z,15.90
2018-04-24T03:20:31.055Z,15.80
2018-04-24T03:22:58.998Z,15.70
2018-04-24T03:25:26.663Z,15.70
2018-04-24T03:27:54.368Z,15.70
2018-04-24T03:30:22.060Z,15.70
2018-04-24T03:32:49.698Z,15.70
2018-04-24T03:35:18.910Z,15.70
2018-04-24T03:37:48.042Z,15.70
2018-04-24T03:40:16.380Z,15.70
2018-04-24T03:42:43.970Z,15.70
2018-04-24T03:45:11.650Z,15.70
2018-04-24T03:47:40.052Z,15.60
2018-04-24T03:50:07.727Z,15.60
2018-04-24T03:52:35.364Z,15.60
2018-04-24T03:55:03.090Z,15.60
2018-04-24T03:57:30.732Z,15.60
2018-04-24T03:59:59.134Z,15.60
2018-04-24T04:02:26.792Z,15.60
2018-04-24T04:04:54.467Z,15.60
2018-04-24T04:07:22.128Z,15.60
2018-04-24T04:09:50.778Z,15.60
2018-04-24T04:12:18.493Z,15.60
2018-04-24T04:14:46.732Z,15.60
2018-04-24T04:17:26.944Z,15.60
2018-04-24T04:20:06.314Z,15.60
2018-04-24T04:22:48.317Z,15.60
2018-04-24T04:25:16.768Z,15.70
2018-04-24T04:27:45.709Z,15.70
2018-04-24T04:30:13.396Z,15.70
2018-04-24T04:32:41.055Z,15.70
2018-04-24T04:35:08.683Z,15.70
2018-04-24T04:37:37.145Z,15.70
2018-04-24T04:40:04.795Z,15.70
2018-04-24T04:42:32.425Z,15.70
2018-04-24T04:45:00.071Z,15.70
2018-04-24T04:47:27.742Z,15.60
2018-04-24T04:49:56.101Z,15.60
2018-04-24T04:52:24.543Z,15.60
2018-04-24T04:54:52.223Z,15.60
2018-04-24T04:57:20.735Z,15.60
2018-04-24T04:59:48.418Z,15.60
2018-04-24T05:02:17.698Z,15.70
2018-04-24T05:04:45.616Z,15.70
2018-04-24T05:07:13.277Z,15.90
2018-04-24T05:09:41.047Z,15.90
2018-04-24T05:12:08.882Z,16.00
2018-04-24T05:14:37.276Z,16.10
2018-04-24T05:17:05.847Z,16.20
2018-04-24T05:19:34.349Z,16.20
2018-04-24T05:22:02.036Z,16.20
2018-04-24T05:24:30.089Z,16.30
2018-04-24T05:26:57.835Z,16.20
2018-04-24T05:29:25.467Z,16.30
2018-04-24T05:31:53.137Z,16.40
2018-04-24T05:34:20.880Z,16.40
2018-04-24T05:36:48.547Z,16.30
2018-04-24T05:39:17.517Z,16.50
2018-04-24T05:41:47.295Z,16.60
2018-04-24T05:44:14.878Z,16.60
2018-04-24T05:46:42.811Z,16.70
2018-04-24T05:49:10.382Z,16.80
2018-04-24T05:51:37.952Z,17.00
2018-04-24T05:54:05.741Z,17.10
2018-04-24T05:56:33.342Z,17.10
2018-04-24T05:59:01.102Z,17.20
2018-04-24T06:01:29.681Z,17.30
2018-04-24T06:03:58.165Z,17.40
2018-04-24T06:06:26.550Z,17.40
2018-04-24T06:08:54.231Z,17.40
2018-04-24T06:11:21.997Z,17.50
2018-04-24T06:13:50.427Z,17.60
2018-04-24T06:16:18.204Z,17.50
2018-04-24T06:18:46.569Z,17.70
2018-04-24T06:21:14.936Z,18.40
2018-04-24T06:23:43.564Z,18.40
2018-04-24T06:26:11.231Z,18.70
2018-04-24T06:28:39.923Z,19.00
2018-04-24T06:31:08.558Z,19.30
2018-04-24T06:33:36.186Z,19.50
2018-04-24T06:36:04.290Z,19.70
2018-04-24T06:38:32.210Z,19.80
2018-04-24T06:40:59.885Z,19.90
2018-04-24T06:43:28.350Z,20.30
2018-04-24T06:45:56.709Z,20.50
2018-04-24T06:48:25.307Z,21.00
2018-04-24T06:50:52.916Z,21.00
2018-04-24T06:53:21.277Z,22.70
2018-04-24T06:55:49.715Z,23.40
2018-04-24T06:58:18.450Z,23.40
2018-04-24T07:00:46.821Z,23.80
2018-04-24T07:03:14.486Z,24.70
2018-04-24T07:05:42.364Z,25.30
2018-04-24T07:08:10.748Z,25.90
2018-04-24T07:10:38.481Z,25.90
2018-04-24T07:13:06.178Z,25.80
2018-04-24T07:15:33.876Z,25.20
2018-04-24T07:18:02.657Z,24.60
2018-04-24T07:20:30.291Z,24.00
2018-04-24T07:22:57.977Z,23.40
2018-04-24T07:25:26.694Z,22.60
2018-04-24T07:27:56.131Z,22.50
2018-04-24T07:30:23.753Z,22.30
2018-04-24T07:32:51.493Z,22.00
2018-04-24T11:11:16.676Z,30.40
2018-04-24T11:13:45.194Z,30.70
2018-04-24T11:16:14.021Z,30.40
2018-04-24T11:18:41.628Z,30.00
2018-04-24T11:21:09.287Z,29.20
2018-04-24T11:23:37.065Z,28.70
2018-04-24T11:26:04.719Z,28.40
2018-04-24T11:28:32.302Z,27.80
2018-04-24T11:30:59.880Z,27.40
2018-04-24T11:33:28.236Z,26.80
2018-04-24T11:35:55.851Z,26.80
2018-04-24T11:38:23.414Z,26.50
2018-04-24T11:40:50.971Z,26.10
2018-04-24T11:43:18.619Z,26.10
2018-04-24T11:45:46.642Z,25.90
2018-04-24T11:48:15.149Z,25.60
2018-04-24T11:50:43.373Z,25.50
2018-04-24T11:53:11.720Z,25.50
2018-04-24T11:55:39.299Z,25.50
2018-04-24T11:58:07.663Z,25.20
2018-04-24T12:00:36.054Z,25.30
2018-04-24T12:03:03.788Z,25.20
2018-04-24T12:05:31.372Z,25.40
2018-04-24T12:07:58.950Z,25.30
2018-04-24T12:10:27.414Z,25.30
2018-04-24T12:12:55.730Z,25.20
2018-04-24T12:15:23.633Z,25.20
2018-04-24T12:17:51.204Z,25.30
2018-04-24T12:20:19.595Z,25.00
2018-04-24T12:22:48.134Z,24.90
2018-04-24T12:25:16.497Z,24.90
2018-04-24T12:27:44.933Z,24.90
2018-04-24T12:30:13.069Z,24.60
2018-04-24T12:32:41.451Z,24.40
2018-04-24T12:35:09.788Z,24.20
2018-04-24T12:37:38.438Z,24.20
2018-04-24T12:40:06.202Z,24.30
2018-04-24T12:42:34.205Z,24.30
2018-04-24T12:45:01.736Z,24.10
2018-04-24T12:47:29.614Z,24.10
2018-04-24T12:49:57.175Z,24.00
2018-04-24T12:52:25.544Z,24.00
2018-04-24T12:54:53.111Z,24.00
2018-04-24T12:57:20.733Z,24.10
2018-04-24T12:59:48.264Z,24.10
2018-04-24T13:02:17.130Z,24.10
2018-04-24T13:04:46.250Z,24.10
2018-04-24T13:07:14.433Z,24.20
2018-04-24T13:09:43.158Z,24.20
2018-04-24T13:12:10.739Z,24.10
2018-04-24T13:14:38.372Z,24.10
2018-04-24T13:17:06.009Z,24.20
2018-04-24T13:19:33.639Z,24.20
2018-04-24T13:22:01.209Z,24.10
2018-04-24T13:24:29.007Z,24.10
2018-04-24T13:26:56.563Z,24.10
2018-04-24T13:29:25.077Z,24.10
2018-04-24T13:31:53.459Z,24.10
2018-04-24T13:34:21.825Z,24.10
2018-04-24T13:36:49.475Z,24.00
2018-04-24T13:39:17.092Z,23.90
2018-04-24T13:41:45.477Z,23.80
2018-04-24T13:44:13.796Z,23.80
2018-04-24T13:46:41.566Z,23.70
2018-04-24T13:49:09.182Z,23.70
2018-04-24T13:51:36.795Z,23.80
2018-04-24T13:54:05.256Z,23.80
2018-04-24T13:56:32.806Z,23.70
2018-04-24T13:59:00.370Z,23.80
2018-04-24T14:01:27.968Z,23.70
2018-04-24T14:03:55.527Z,23.80
2018-04-24T14:06:23.116Z,23.80
2018-04-24T14:08:50.772Z,23.70
2018-04-24T14:11:18.380Z,23.70
2018-04-24T14:13:45.937Z,23.70
2018-04-24T14:16:14.156Z,23.60
2018-04-24T14:18:42.152Z,23.60
2018-04-24T14:21:09.781Z,23.30
2018-04-24T14:23:37.366Z,23.50
2018-04-24T14:26:04.971Z,23.50
2018-04-24T14:28:32.526Z,23.50
2018-04-24T14:31:00.098Z,23.40
2018-04-24T14:33:27.677Z,23.40
2018-04-24T14:35:56.025Z,23.40
2018-04-24T14:38:23.744Z,23.40
2018-04-24T14:40:51.296Z,23.30
2018-04-24T14:43:18.855Z,23.40
2018-04-24T14:45:47.210Z,23.50
2018-04-24T14:48:15.329Z,23.40
2018-04-24T14:50:43.680Z,23.50
2018-04-24T14:53:11.274Z,23.50
2018-04-24T14:55:38.889Z,23.50
2018-04-24T14:58:06.470Z,23.40
2018-04-24T15:00:34.170Z,23.20
2018-04-24T15:03:01.771Z,23.20
2018-04-24T15:05:29.367Z,23.10
2018-04-24T15:07:56.970Z,23.10
2018-04-24T15:10:24.539Z,23.10
2018-04-24T15:12:52.185Z,23.20
2018-04-24T15:15:19.723Z,23.30
2018-04-24T15:17:47.287Z,23.20
2018-04-24T15:20:15.628Z,23.20
2018-04-24T15:22:44.367Z,23.00
2018-04-24T15:25:14.079Z,23.20
2018-04-24T15:27:41.631Z,23.20
2018-04-24T15:30:09.314Z,23.20
2018-04-24T15:32:36.870Z,23.20
2018-04-24T15:35:04.558Z,23.10
2018-04-24T15:37:32.085Z,23.10
2018-04-24T15:39:59.652Z,23.10
2018-04-24T15:42:27.965Z,23.00
2018-04-24T15:44:55.602Z,22.80
2018-04-24T15:47:23.169Z,23.00
2018-04-24T15:49:50.710Z,22.90
2018-04-24T15:52:18.297Z,22.90
2018-04-24T15:54:45.906Z,23.00
2018-04-24T15:57:14.918Z,22.80
2018-04-24T15:59:42.933Z,22.80
2018-04-24T16:02:11.297Z,22.50
2018-04-24T16:04:38.875Z,22.50
2018-04-24T16:07:06.555Z,22.50
2018-04-24T16:09:34.955Z,22.50
2018-04-24T16:12:02.538Z,22.40
2018-04-24T16:14:30.148Z,22.50
2018-04-24T16:16:57.711Z,22.50
2018-04-24T16:19:25.388Z,22.50
2018-04-24T16:21:52.920Z,22.40
2018-04-24T16:24:22.229Z,22.30
2018-04-24T16:26:49.806Z,22.30
2018-04-24T16:29:17.407Z,22.30
2018-04-24T16:31:45.157Z,22.20
2018-04-24T16:34:13.651Z,22.20
2018-04-24T16:36:41.616Z,22.20
2018-04-24T16:39:09.942Z,22.20
2018-04-24T16:41:37.512Z,22.20
2018-04-24T16:44:05.167Z,22.10
2018-04-24T16:46:33.535Z,22.10
2018-04-24T16:49:01.934Z,22.10
2018-04-24T16:51:29.519Z,22.10
2018-04-24T16:53:57.073Z,22.10
2018-04-24T16:56:25.438Z,21.90
2018-04-24T16:58:53.780Z,21.90
2018-04-24T17:01:21.409Z,21.80
2018-04-24T17:03:49.014Z,21.90
2018-04-24T17:06:16.721Z,21.90
2018-04-24T17:08:45.185Z,21.90
2018-04-24T17:11:13.341Z,21.90
2018-04-24T17:13:40.931Z,21.90
2018-04-24T17:16:08.474Z,21.70
2018-04-24T17:18:36.128Z,21.80
2018-04-24T17:21:04.460Z,21.70
2018-04-24T17:23:32.090Z,21.70
2018-04-24T17:25:59.648Z,21.70
2018-04-24T17:28:27.248Z,21.70
2018-04-24T17:30:54.826Z,21.70
2018-04-24T17:33:23.222Z,21.70
2018-04-24T17:35:51.619Z,21.70
2018-04-24T17:38:19.193Z,21.70
2018-04-24T17:40:46.840Z,21.60
2018-04-24T17:43:15.162Z,21.60
2018-04-24T17:45:43.382Z,21.60
2018-04-24T17:48:10.998Z,21.50
2018-04-24T17:50:38.870Z,21.40
2018-04-24T17:53:06.539Z,21.30
2018-04-24T17:55:34.110Z,21.30
2018-04-24T17:58:01.713Z,21.20
2018-04-24T18:00:29.291Z,21.20
2018-04-24T18:02:57.692Z,21.00
2018-04-24T18:05:25.249Z,21.00
2018-04-24T18:07:52.931Z,20.90
2018-04-24T18:10:20.535Z,20.90
2018-04-24T18:12:48.103Z,20.80
2018-04-24T18:15:15.693Z,20.70
2018-04-24T18:17:44.175Z,20.70
2018-04-24T18:20:11.895Z,20.50
2018-04-24T18:22:39.456Z,20.60
2018-04-24T18:25:07.224Z,20.50
2018-04-24T18:27:34.847Z,20.50
2018-04-24T18:30:02.461Z,20.40
2018-04-24T18:32:30.135Z,20.40
2018-04-24T18:34:58.028Z,20.30
2018-04-24T18:37:25.612Z,20.20
2018-04-24T18:39:53.290Z,20.20
2018-04-24T18:42:20.796Z,20.20
2018-04-24T18:44:48.481Z,20.10
2018-04-24T18:47:16.099Z,19.90
2018-04-24T18:49:44.058Z,20.10
2018-04-24T18:52:11.620Z,20.10
2018-04-24T18:54:39.616Z,20.00
2018-04-24T18:57:07.205Z,20.00
2018-04-24T18:59:35.553Z,20.00
2018-04-24T19:02:03.610Z,19.90
2018-04-24T19:04:31.242Z,19.90
2018-04-24T19:06:58.819Z,19.90
2018-04-24T19:09:27.204Z,19.80
2018-04-24T19:11:55.117Z,19.80
2018-04-24T19:14:24.277Z,19.80
2018-04-24T19:16:51.851Z,19.80
2018-04-24T19:19:25.107Z,19.70
2018-04-24T19:21:52.659Z,19.70
2018-04-24T19:24:26.805Z,19.70
2018-04-24T19:26:54.447Z,19.70
2018-04-24T19:29:22.000Z,19.70
2018-04-24T19:31:55.091Z,19.70
2018-04-24T19:34:22.694Z,19.60
2018-04-24T19:36:50.357Z,19.60
2018-04-24T19:39:23.504Z,19.50
2018-04-24T19:41:51.061Z,19.50
2018-04-24T19:44:18.747Z,19.50
2018-04-24T19:46:46.318Z,19.40
2018-04-24T19:49:20.637Z,19.40
2018-04-24T19:51:48.262Z,19.40
2018-04-24T19:54:15.824Z,19.40
2018-04-24T19:56:44.025Z,19.30
2018-04-24T19:59:12.747Z,19.30
2018-04-24T20:01:40.350Z,19.30
2018-04-24T20:04:08.000Z,19.20
2018-04-24T20:06:35.565Z,19.20
2018-04-24T20:09:03.216Z,19.10
2018-04-24T20:11:31.597Z,19.00
2018-04-24T20:13:59.948Z,18.90
2018-04-24T20:16:28.320Z,19.00
2018-04-24T20:18:55.936Z,19.00
2018-04-24T20:21:23.535Z,18.90
2018-04-24T20:23:51.175Z,18.90
2018-04-24T20:26:19.705Z,18.90
2018-04-24T20:28:48.326Z,18.80
2018-04-24T20:31:15.983Z,18.70
2018-04-24T20:33:43.948Z,18.70
2018-04-24T20:36:14.001Z,18.60
2018-04-24T20:38:42.961Z,18.60
2018-04-24T20:41:10.608Z,18.60
2018-04-24T20:43:38.164Z,18.60
2018-04-24T20:46:07.006Z,18.60
2018-04-24T20:48:34.694Z,18.60
2018-04-24T20:51:02.284Z,18.60
2018-04-24T20:53:29.979Z,18.50
2018-04-24T20:55:57.577Z,18.50
2018-04-24T20:58:26.269Z,18.40
2018-04-24T21:00:56.294Z,18.40
2018-04-24T21:03:24.702Z,18.30
2018-04-24T21:05:52.290Z,18.30
2018-04-24T21:08:19.855Z,18.30
2018-04-24T21:10:47.451Z,18.20
2018-04-24T21:13:15.023Z,18.20
2018-04-24T21:15:45.193Z,18.10
2018-04-24T21:18:13.316Z,18.10
2018-04-24T21:20:42.958Z,18.00
2018-04-24T21:23:10.561Z,18.00
2018-04-24T21:25:38.941Z,18.00
2018-04-24T21:28:06.496Z,18.00
2018-04-24T21:30:34.033Z,18.00
2018-04-24T21:33:01.643Z,18.00
2018-04-24T21:35:30.008Z,17.90
2018-04-24T21:37:58.467Z,17.90
2018-04-24T21:40:26.807Z,18.00
2018-04-24T21:42:54.362Z,18.00
2018-04-24T21:45:24.033Z,17.80
2018-04-24T21:47:51.590Z,17.80
2018-04-24T21:50:19.218Z,17.70
2018-04-24T21:52:46.782Z,17.80
2018-04-24T21:55:15.704Z,17.70
2018-04-24T21:57:44.780Z,17.70
2018-04-24T22:00:16.572Z,17.70
2018-04-24T22:02:44.997Z,17.70
2018-04-24T22:05:12.546Z,17.60
2018-04-24T22:07:40.116Z,17.50
2018-04-24T22:10:07.751Z,17.50
2018-04-24T22:12:35.360Z,17.40
2018-04-24T22:15:02.926Z,17.40
2018-04-24T22:17:30.570Z,17.40
2018-04-24T22:19:58.896Z,17.40
2018-04-24T22:22:26.533Z,17.40
2018-04-24T22:24:54.141Z,17.40
2018-04-24T22:27:22.634Z,17.20
2018-04-24T22:29:50.364Z,17.00
2018-04-24T22:32:18.797Z,17.10
2018-04-24T22:34:46.703Z,17.00
2018-04-24T22:37:14.871Z,17.00
2018-04-24T22:39:44.197Z,16.90
2018-04-24T22:42:11.829Z,16.90
2018-04-24T22:44:40.189Z,16.90
2018-04-24T22:47:08.209Z,16.80
2018-04-24T22:49:35.763Z,16.80
2018-04-24T22:52:03.374Z,16.80
2018-04-24T22:54:30.993Z,16.80
2018-04-24T22:56:58.683Z,16.70
2018-04-24T22:59:27.060Z,16.70
2018-04-24T23:01:54.617Z,16.70
2018-04-24T23:04:23.328Z,16.60
2018-04-24T23:06:50.977Z,16.60
2018-04-24T23:09:18.553Z,16.50
2018-04-24T23:11:57.977Z,16.60
2018-04-24T23:14:37.414Z,16.50
2018-04-24T23:17:17.754Z,16.40
2018-04-24T23:19:57.400Z,16.40
2018-04-24T23:22:32.848Z,16.30
2018-04-24T23:25:01.203Z,16.20
2018-04-24T23:27:30.693Z,16.20
2018-04-24T23:29:58.299Z,16.20
2018-04-24T23:32:25.908Z,16.10
2018-04-24T23:34:55.274Z,16.10
2018-04-24T23:37:22.857Z,16.10
2018-04-24T23:39:50.528Z,16.10
2018-04-24T23:59:39.024Z,15.80
